Time;durP1;ratioP1;P1;durP2;ratioP2;P2;SDS_P1;SDS_P2;PMS_P1;PMS_P2;Temp;Humidity;BMP_temperature;BMP_pressure;BME280_temperature;BME280_humidity;BME280_pressure;Samples;Min_cycle;Max_cycle;Signal;HPM_P1;HPM_P2
2022/04/24 00:01:34;;;;;;;;;7.00;7.00;;;;;21.35;37.89;99335.72;5078050;28;45355;-58
2022/04/24 00:04:00;;;;;;;;;5.75;5.75;;;;;21.34;37.75;99323.50;5077711;27;45354;-58
2022/04/24 00:06:26;;;;;;;;;5.50;5.50;;;;;21.34;38.04;99328.78;5077294;28;47240;-57
2022/04/24 00:08:51;;;;;;;;;5.75;5.75;;;;;21.33;37.58;99333.22;5076988;28;46087;-58
2022/04/24 00:11:17;;;;;;;;;6.25;6.25;;;;;21.33;37.72;99324.50;5076788;28;45629;-58
2022/04/24 00:13:43;;;;;;;;;4.75;4.75;;;;;21.34;37.67;99328.78;5077798;28;45597;-58
2022/04/24 00:16:09;;;;;;;;;6.00;5.00;;;;;21.34;38.13;99326.13;5077344;28;45350;-58
2022/04/24 00:18:38;;;;;;;;;8.00;6.00;;;;;21.34;37.77;99326.13;5077674;28;45751;-58
2022/04/24 00:21:04;;;;;;;;;5.25;5.25;;;;;21.33;37.76;99325.31;5077941;28;45729;-58
2022/04/24 00:23:30;;;;;;;;;5.75;5.75;;;;;21.33;37.66;99324.50;5077671;28;45449;-58
2022/04/24 00:25:56;;;;;;;;;6.25;5.25;;;;;21.33;37.62;99322.69;5077150;28;46600;-58
2022/04/24 00:28:21;;;;;;;;;6.00;5.00;;;;;21.34;37.75;99326.13;5077163;28;45498;-58
2022/04/24 00:30:47;;;;;;;;;7.00;6.00;;;;;21.33;37.89;99319.22;5077302;28;45672;-58
2022/04/24 00:33:12;;;;;;;;;7.00;7.00;;;;;21.34;38.17;99328.78;5077338;28;45578;-58
2022/04/24 00:35:37;;;;;;;;;7.00;7.00;;;;;21.29;37.80;99314.19;5077387;28;45424;-58
2022/04/24 00:38:03;;;;;;;;;6.25;6.25;;;;;21.30;37.83;99315.88;5077064;28;45449;-58
2022/04/24 00:40:28;;;;;;;;;5.00;5.00;;;;;21.33;38.15;99321.84;5077165;28;45393;-58
2022/04/24 00:42:54;;;;;;;;;5.75;5.25;;;;;21.31;37.64;99320.19;5077127;28;45535;-58
2022/04/24 00:45:19;;;;;;;;;6.50;6.50;;;;;21.33;37.99;99313.94;5076983;28;45449;-59
2022/04/24 00:47:45;;;;;;;;;8.50;7.00;;;;;21.32;37.84;99315.72;5076846;27;45273;-58
2022/04/24 00:50:11;;;;;;;;;5.75;5.75;;;;;21.31;38.01;99320.19;5077056;28;45372;-58
2022/04/24 00:52:37;;;;;;;;;6.00;6.00;;;;;21.31;37.99;99314.91;5077441;27;45688;-58
2022/04/24 00:55:04;;;;;;;;;7.25;7.25;;;;;21.29;38.06;99316.81;5076678;28;45420;-58
2022/04/24 00:57:30;;;;;;;;;9.25;7.00;;;;;21.32;38.19;99334.19;5058573;28;45926;-57
2022/04/24 00:59:55;;;;;;;;;5.00;5.00;;;;;21.33;37.95;99327.13;5076801;27;45436;-58
2022/04/24 01:02:21;;;;;;;;;6.00;5.50;;;;;21.32;37.97;99331.53;5076823;28;45445;-58
2022/04/24 01:04:47;;;;;;;;;7.50;7.50;;;;;21.33;37.73;99332.41;5076489;28;45367;-58
2022/04/24 01:07:12;;;;;;;;;7.25;7.25;;;;;21.30;38.03;99331.69;5076439;27;45482;-58
2022/04/24 01:09:38;;;;;;;;;7.00;6.25;;;;;21.30;37.74;99334.31;5058591;28;45406;-58
2022/04/24 01:12:04;;;;;;;;;6.75;6.75;;;;;21.31;37.92;99338.63;5076550;28;45477;-57
2022/04/24 01:14:31;;;;;;;;;8.25;5.50;;;;;21.32;38.14;99342.09;5076453;28;46260;-57
2022/04/24 01:16:58;;;;;;;;;6.25;6.25;;;;;21.30;37.65;99336.94;5076404;28;45974;-59
2022/04/24 01:19:25;;;;;;;;;6.75;6.25;;;;;21.30;37.74;99334.31;5076767;28;45430;-59
2022/04/24 01:21:51;;;;;;;;;7.75;6.75;;;;;21.31;38.06;99336.00;5080238;28;45562;-59
2022/04/24 01:24:20;;;;;;;;;7.00;6.50;;;;;21.31;37.83;99340.41;5080000;28;46137;-58
2022/04/24 01:26:46;;;;;;;;;6.50;6.50;;;;;21.29;38.00;99337.91;5080118;28;45787;-59
2022/04/24 01:29:12;;;;;;;;;7.00;6.25;;;;;21.30;37.92;99347.50;5080268;28;45384;-59
2022/04/24 01:31:39;;;;;;;;;4.00;4.00;;;;;21.31;38.01;99351.81;5080648;28;45308;-59
2022/04/24 01:34:05;;;;;;;;;6.50;6.50;;;;;21.30;38.04;99354.53;5079891;28;47179;-59
2022/04/24 01:36:31;;;;;;;;;7.50;6.25;;;;;21.30;37.93;99363.31;5079894;28;45881;-59
2022/04/24 01:38:56;;;;;;;;;6.25;6.25;;;;;21.31;38.26;99356.22;5079971;28;45422;-59
2022/04/24 01:41:22;;;;;;;;;7.50;7.00;;;;;21.30;37.68;99358.03;5080075;28;45560;-59
2022/04/24 01:43:48;;;;;;;;;3.50;3.50;;;;;21.30;38.32;99360.66;5060699;27;46966;-59
2022/04/24 01:46:13;;;;;;;;;6.00;6.00;;;;;21.28;38.01;99357.31;5079654;28;45336;-59
2022/04/24 01:48:39;;;;;;;;;7.25;6.25;;;;;21.30;38.21;99360.66;5080050;28;45268;-59
2022/04/24 01:51:07;;;;;;;;;7.00;7.00;;;;;21.29;38.05;99359.00;5079878;28;45389;-59
2022/04/24 01:53:33;;;;;;;;;6.75;5.00;;;;;21.29;38.31;99364.25;5060703;28;46893;-59
2022/04/24 01:56:01;;;;;;;;;7.50;7.50;;;;;21.30;38.03;99365.94;5079520;28;45371;-59
2022/04/24 01:58:26;;;;;;;;;9.00;8.75;;;;;21.29;38.20;99364.25;5079616;28;45490;-59
2022/04/24 02:00:53;;;;;;;;;7.25;7.00;;;;;21.30;38.07;99365.09;5079678;28;45252;-59
2022/04/24 02:03:19;;;;;;;;;6.75;6.75;;;;;21.30;38.18;99373.00;5078582;27;46251;-59
2022/04/24 02:05:45;;;;;;;;;6.00;6.00;;;;;21.29;38.28;99366.91;5078517;28;45415;-58
2022/04/24 02:08:11;;;;;;;;;6.75;6.75;;;;;21.27;38.54;99370.63;5079233;28;45437;-58
2022/04/24 02:10:36;;;;;;;;;7.50;6.00;;;;;21.28;38.52;99378.41;5079521;28;45184;-59
2022/04/24 02:13:02;;;;;;;;;8.00;6.00;;;;;21.29;38.17;99374.81;5079101;27;46109;-59
2022/04/24 02:15:28;;;;;;;;;8.00;7.00;;;;;21.27;38.42;99379.34;5079229;28;45373;-59
2022/04/24 02:17:54;;;;;;;;;6.50;6.50;;;;;21.29;38.44;99377.44;5079320;27;45282;-59
2022/04/24 02:20:19;;;;;;;;;7.25;6.00;;;;;21.28;38.46;99383.66;5079438;27;45582;-59
2022/04/24 02:22:45;;;;;;;;;7.00;7.00;;;;;21.29;38.06;99389.75;5079033;27;45591;-59
2022/04/24 02:25:10;;;;;;;;;8.00;6.50;;;;;21.29;38.33;99384.50;5079372;27;45409;-58
2022/04/24 02:27:35;;;;;;;;;7.75;7.75;;;;;21.29;38.05;99384.50;5079060;28;45468;-59
2022/04/24 02:30:01;;;;;;;;;7.00;6.00;;;;;21.28;38.54;99380.19;5079377;28;45559;-59
2022/04/24 02:32:26;;;;;;;;;7.50;7.25;;;;;21.28;38.20;99391.56;5078573;28;46015;-60
2022/04/24 02:34:52;;;;;;;;;5.75;5.75;;;;;21.28;38.41;99388.09;5078963;27;45429;-59
2022/04/24 02:37:17;;;;;;;;;7.00;7.00;;;;;21.27;38.08;99382.00;5079057;28;45288;-59
2022/04/24 02:39:43;;;;;;;;;8.00;6.75;;;;;21.24;38.34;99382.22;5079561;27;45383;-59
2022/04/24 02:42:08;;;;;;;;;5.00;5.00;;;;;21.28;38.39;99390.72;5078602;27;46400;-59
2022/04/24 02:44:34;;;;;;;;;6.50;6.00;;;;;21.27;38.13;99391.72;5078809;28;45249;-59
2022/04/24 02:47:00;;;;;;;;;7.25;5.50;;;;;21.25;38.26;99391.00;5078918;27;45437;-59
2022/04/24 02:49:25;;;;;;;;;7.00;7.00;;;;;21.26;38.48;99390.84;5079025;28;45162;-58
2022/04/24 02:51:50;;;;;;;;;6.75;6.75;;;;;21.27;38.35;99389.06;5078658;28;45247;-59
2022/04/24 02:54:16;;;;;;;;;7.00;7.00;;;;;21.25;38.21;99396.25;5078421;27;48027;-59
2022/04/24 02:56:41;;;;;;;;;7.00;6.00;;;;;21.24;38.29;99391.94;5079080;28;45260;-58
2022/04/24 02:59:07;;;;;;;;;4.00;3.25;;;;;21.25;38.14;99398.91;5078940;27;45395;-59
2022/04/24 03:01:33;;;;;;;;;6.50;6.25;;;;;21.23;38.02;99396.38;5078370;28;46209;-58
2022/04/24 03:03:59;;;;;;;;;8.00;6.00;;;;;21.25;38.19;99398.91;5078491;28;45849;-58
2022/04/24 03:06:25;;;;;;;;;6.50;6.50;;;;;21.25;38.04;99402.34;5078403;27;45324;-59
2022/04/24 03:08:50;;;;;;;;;7.75;7.75;;;;;21.24;38.48;99398.03;5078595;28;45521;-59
2022/04/24 03:11:16;;;;;;;;;6.50;6.00;;;;;21.25;38.22;99405.00;5078332;28;46599;-59
2022/04/24 03:13:42;;;;;;;;;6.00;6.00;;;;;21.23;38.25;99401.63;5078532;28;45283;-59
2022/04/24 03:16:08;;;;;;;;;7.00;7.00;;;;;21.25;38.32;99404.16;5078422;28;45378;-59
2022/04/24 03:18:33;;;;;;;;;6.25;6.25;;;;;21.22;37.97;99404.41;5078510;28;45373;-59
2022/04/24 03:20:59;;;;;;;;;6.25;6.25;;;;;21.23;37.91;99414.81;5078027;28;45319;-58
2022/04/24 03:23:24;;;;;;;;;9.00;6.00;;;;;21.22;38.21;99407.88;5078109;28;45371;-58
2022/04/24 03:25:50;;;;;;;;;7.75;7.00;;;;;21.24;38.19;99416.47;5078155;28;45217;-58
2022/04/24 03:28:17;;;;;;;;;7.00;6.00;;;;;21.23;38.35;99414.81;5077445;28;45632;-58
2022/04/24 03:30:42;;;;;;;;;7.25;6.50;;;;;21.22;38.04;99420.22;5077982;28;46014;-59
2022/04/24 03:33:08;;;;;;;;;8.50;8.50;;;;;21.23;38.24;99427.97;5077956;28;45353;-58
2022/04/24 03:35:33;;;;;;;;;4.25;4.00;;;;;21.23;38.24;99422.72;5078133;28;45408;-59
2022/04/24 03:37:59;;;;;;;;;5.25;5.25;;;;;21.22;38.57;99421.03;5078288;28;45419;-58
2022/04/24 03:40:24;;;;;;;;;6.75;6.75;;;;;21.23;38.02;99427.16;5077710;28;46125;-58
2022/04/24 03:42:50;;;;;;;;;6.50;6.00;;;;;21.23;38.05;99432.44;5076942;28;45634;-59
2022/04/24 03:45:15;;;;;;;;;7.75;7.75;;;;;21.20;38.37;99433.53;5078195;28;45244;-58
2022/04/24 03:47:40;;;;;;;;;7.00;7.00;;;;;21.23;38.27;99441.16;5059473;28;45407;-59
2022/04/24 03:50:07;;;;;;;;;8.00;8.00;;;;;21.19;37.94;99431.00;5077701;28;46273;-59
2022/04/24 03:52:32;;;;;;;;;7.75;7.00;;;;;21.20;37.73;99425.63;5077763;28;45991;-58
2022/04/24 03:54:58;;;;;;;;;8.25;6.25;;;;;21.21;38.12;99436.97;5077795;28;45361;-59
2022/04/24 03:57:23;;;;;;;;;7.75;7.00;;;;;21.20;37.95;99436.16;5077828;28;45568;-59
2022/04/24 03:59:49;;;;;;;;;9.00;8.50;;;;;21.20;38.04;99436.16;5077638;28;46012;-58
2022/04/24 04:02:14;;;;;;;;;9.25;7.50;;;;;21.19;37.95;99431.84;5077812;28;45461;-58
2022/04/24 04:04:39;;;;;;;;;7.25;7.25;;;;;21.19;38.08;99434.47;5077805;28;45687;-58
2022/04/24 04:07:05;;;;;;;;;8.50;8.50;;;;;21.19;37.92;99431.84;5077701;28;45509;-59
2022/04/24 04:09:31;;;;;;;;;9.25;9.25;;;;;21.14;38.08;99434.84;5077192;28;46849;-58
2022/04/24 04:11:56;;;;;;;;;10.50;9.00;;;;;21.13;37.68;99443.72;5077223;28;45382;-58
2022/04/24 04:14:22;;;;;;;;;9.25;8.00;;;;;21.11;37.56;99445.63;5077504;28;45205;-58
2022/04/24 04:16:50;;;;;;;;;12.75;11.00;;;;;21.08;37.97;99445.88;5077925;28;45414;-57
2022/04/24 04:19:16;;;;;;;;;10.50;10.00;;;;;21.07;38.06;99453.91;5077559;28;46700;-57
2022/04/24 04:21:43;;;;;;;;;9.00;9.00;;;;;21.03;38.11;99453.31;5077275;28;45427;-57
2022/04/24 04:24:09;;;;;;;;;14.50;11.00;;;;;21.05;38.30;99453.19;5058136;28;45513;-57
2022/04/24 04:26:35;;;;;;;;;11.00;11.00;;;;;21.03;37.96;99455.94;5076761;28;45468;-58
2022/04/24 04:29:00;;;;;;;;;11.00;8.50;;;;;21.02;37.88;99451.63;5076347;28;45505;-57
2022/04/24 04:31:26;;;;;;;;;10.50;9.00;;;;;21.00;37.78;99451.72;5076133;28;49971;-58
2022/04/24 04:33:51;;;;;;;;;10.75;10.75;;;;;21.01;38.18;99452.59;5076414;28;45477;-58
2022/04/24 04:36:16;;;;;;;;;10.00;10.00;;;;;21.00;37.87;99462.28;5076592;28;45455;-57
2022/04/24 04:38:42;;;;;;;;;9.50;9.50;;;;;21.00;38.05;99458.81;5076191;27;45453;-58
2022/04/24 04:41:08;;;;;;;;;10.00;10.00;;;;;20.97;38.32;99454.63;5066484;28;45453;-57
2022/04/24 04:43:34;;;;;;;;;10.00;9.50;;;;;21.00;38.00;99456.19;5076237;28;45446;-58
2022/04/24 04:45:59;;;;;;;;;13.00;11.50;;;;;20.99;37.79;99457.13;5076388;28;45599;-57
2022/04/24 04:48:26;;;;;;;;;10.25;9.25;;;;;20.98;37.84;99460.72;5075928;28;46006;-57
2022/04/24 04:50:51;;;;;;;;;10.00;9.75;;;;;20.98;38.18;99466.84;5076036;28;45880;-58
2022/04/24 04:53:16;;;;;;;;;10.00;9.00;;;;;20.97;38.22;99465.16;5076361;28;45354;-58
2022/04/24 04:55:42;;;;;;;;;11.75;11.75;;;;;20.96;37.70;99473.19;5075171;28;45282;-57
2022/04/24 04:58:07;;;;;;;;;7.25;6.25;;;;;20.96;38.06;99468.75;5075855;28;46207;-57
2022/04/24 05:00:33;;;;;;;;;10.75;10.00;;;;;20.95;37.91;99472.34;5075885;28;45279;-57
2022/04/24 05:02:58;;;;;;;;;11.00;11.00;;;;;20.96;37.77;99484.56;5075856;28;45335;-58
2022/04/24 05:05:23;;;;;;;;;10.75;9.00;;;;;20.97;37.82;99491.50;5075184;28;45565;-58
2022/04/24 05:07:49;;;;;;;;;11.50;11.00;;;;;20.96;37.87;99487.19;5075933;28;46087;-58
2022/04/24 05:10:14;;;;;;;;;10.00;9.50;;;;;20.97;37.66;99486.25;5075773;28;45410;-57
2022/04/24 05:12:39;;;;;;;;;10.00;10.00;;;;;20.97;37.67;99496.78;5065586;28;45422;-58
2022/04/24 05:15:12;;;;;;;;;10.50;10.00;;;;;20.96;37.81;99495.09;5065545;28;45236;-58
2022/04/24 05:17:39;;;;;;;;;11.75;11.00;;;;;20.97;38.00;99499.41;5064388;28;46981;-57
2022/04/24 05:20:06;;;;;;;;;11.00;9.00;;;;;20.99;37.61;99505.41;5040334;28;45933;-57
2022/04/24 05:22:31;;;;;;;;;11.00;11.00;;;;;20.99;38.00;99501.91;5056244;28;45268;-59
2022/04/24 05:24:56;;;;;;;;;12.00;10.25;;;;;20.97;38.24;99503.81;5056337;28;45258;-59
2022/04/24 05:27:22;;;;;;;;;16.00;11.25;;;;;20.99;38.22;99510.66;5056327;28;45329;-58
2022/04/24 05:29:48;;;;;;;;;10.50;9.50;;;;;20.99;37.60;99515.09;5055962;28;45331;-58
2022/04/24 05:32:13;;;;;;;;;15.75;13.00;;;;;20.97;37.99;99503.81;5056219;28;45261;-58
2022/04/24 05:34:39;;;;;;;;;10.75;10.75;;;;;20.97;37.82;99512.59;5056212;28;45233;-58
2022/04/24 05:37:05;;;;;;;;;13.75;12.00;;;;;20.99;37.68;99520.34;5055882;28;45676;-58
2022/04/24 05:39:30;;;;;;;;;12.00;11.25;;;;;20.97;38.13;99520.47;5055881;28;45597;-58
2022/04/24 05:41:56;;;;;;;;;13.75;12.50;;;;;20.98;37.88;99530.06;5056086;28;45252;-58
2022/04/24 05:44:21;;;;;;;;;12.75;10.00;;;;;20.98;37.87;99531.84;5056433;28;45547;-58
2022/04/24 05:46:46;;;;;;;;;11.50;11.50;;;;;20.97;37.94;99528.38;5055255;28;58674;-59
2022/04/24 05:49:12;;;;;;;;;11.75;10.50;;;;;20.97;37.71;99523.13;5055740;28;45331;-58
2022/04/24 05:51:37;;;;;;;;;14.75;12.00;;;;;20.99;37.92;99526.47;5055757;28;45395;-58
2022/04/24 05:54:03;;;;;;;;;10.75;10.75;;;;;20.96;37.95;99521.44;5056021;28;45603;-57
2022/04/24 05:56:28;;;;;;;;;12.25;11.25;;;;;20.99;37.87;99534.38;5055601;28;45355;-58
2022/04/24 05:58:53;;;;;;;;;15.00;13.25;;;;;20.98;38.00;99530.06;5056003;28;45371;-58
2022/04/24 06:01:18;;;;;;;;;11.00;11.00;;;;;20.99;37.93;99531.75;5055823;28;45405;-59
2022/04/24 06:03:44;;;;;;;;;10.00;10.00;;;;;20.96;37.95;99531.13;5055790;28;45308;-60
2022/04/24 06:06:10;;;;;;;;;10.75;10.00;;;;;20.96;37.88;99534.59;5056609;28;46998;-58
2022/04/24 06:08:35;;;;;;;;;13.00;13.00;;;;;20.99;38.35;99538.78;5059002;28;46078;-59
2022/04/24 06:11:01;;;;;;;;;11.25;10.00;;;;;20.98;37.87;99543.22;5075511;28;45348;-59
2022/04/24 06:13:27;;;;;;;;;12.75;11.00;;;;;21.00;38.16;99543.09;5079593;28;45500;-59
2022/04/24 06:15:55;;;;;;;;;10.50;10.50;;;;;20.99;38.04;99539.66;5079406;28;45898;-59
2022/04/24 06:18:21;;;;;;;;;11.75;10.00;;;;;21.00;38.02;99545.75;5079362;28;45355;-59
2022/04/24 06:20:46;;;;;;;;;9.50;8.50;;;;;21.02;38.27;99546.47;5079264;28;45709;-59
2022/04/24 06:23:11;;;;;;;;;13.00;11.75;;;;;21.03;38.13;99547.28;5079338;28;45338;-60
2022/04/24 06:25:38;;;;;;;;;12.00;11.00;;;;;21.03;37.90;99542.03;5078800;28;46007;-60
2022/04/24 06:28:04;;;;;;;;;16.50;11.50;;;;;21.04;38.29;99551.59;5078961;28;45334;-61
2022/04/24 06:30:30;;;;;;;;;12.00;12.00;;;;;21.01;38.45;99542.97;5078936;28;45305;-59
2022/04/24 06:32:57;;;;;;;;;10.00;10.00;;;;;21.05;38.20;99562.03;5079629;28;45813;-58
2022/04/24 06:35:24;;;;;;;;;13.75;11.00;;;;;21.06;38.61;99563.69;5078031;28;45489;-59
2022/04/24 06:37:55;;;;;;;;;11.25;11.25;;;;;21.07;38.54;99564.53;5078819;28;45709;-60
2022/04/24 06:40:25;;;;;;;;;10.00;10.00;;;;;21.07;38.01;99569.81;5079069;28;45308;-58
2022/04/24 06:42:50;;;;;;;;;12.75;12.75;;;;;21.07;38.09;99559.28;5079142;28;45391;-60
2022/04/24 06:45:17;;;;;;;;;13.50;12.25;;;;;21.07;38.23;99565.38;5077909;28;45430;-59
2022/04/24 06:47:43;;;;;;;;;14.50;14.50;;;;;21.07;38.29;99567.19;5078371;28;45278;-60
2022/04/24 06:50:09;;;;;;;;;13.00;12.25;;;;;21.07;38.38;99567.19;5078730;28;45341;-60
2022/04/24 06:52:34;;;;;;;;;12.50;12.50;;;;;21.08;38.03;99566.22;5060854;28;45718;-58
2022/04/24 06:55:00;;;;;;;;;13.50;11.25;;;;;21.08;37.98;99571.50;5078476;28;46049;-58
2022/04/24 06:57:26;;;;;;;;;14.25;11.50;;;;;21.08;37.82;99571.50;5078849;28;45426;-59
2022/04/24 06:59:52;;;;;;;;;12.75;12.50;;;;;21.07;38.11;99569.81;5078716;28;45458;-58
2022/04/24 07:02:17;;;;;;;;;15.50;13.25;;;;;21.08;38.25;99571.50;5078728;28;45224;-61
2022/04/24 07:04:42;;;;;;;;;14.67;13.00;;;;;21.09;37.96;99573.16;5077894;28;56942;-60
2022/04/24 07:07:07;;;;;;;;;16.50;14.00;;;;;21.09;37.95;99578.44;5078321;28;45356;-59
2022/04/24 07:09:33;;;;;;;;;13.75;12.75;;;;;21.07;38.15;99575.09;5078424;28;45264;-59
2022/04/24 07:11:58;;;;;;;;;17.75;14.50;;;;;21.04;37.51;99565.63;5078404;28;45518;-56
2022/04/24 07:14:23;;;;;;;;;14.25;14.25;;;;;21.07;37.46;99580.34;5078385;28;46246;-60
2022/04/24 07:16:49;;;;;;;;;15.33;13.33;;;;;21.05;37.66;99574.34;5077810;28;48206;-58
2022/04/24 07:19:14;;;;;;;;;15.25;13.75;;;;;21.07;37.51;99582.97;5077505;28;45216;-60
2022/04/24 07:21:40;;;;;;;;;20.25;16.00;;;;;21.06;37.59;99583.94;5078440;28;45612;-58
2022/04/24 07:24:05;;;;;;;;;15.75;15.75;;;;;21.07;37.92;99585.63;5077964;28;45885;-60
2022/04/24 07:26:31;;;;;;;;;19.50;15.75;;;;;21.07;37.55;99588.25;5077981;28;45350;-58
2022/04/24 07:28:56;;;;;;;;;14.75;14.00;;;;;21.08;37.45;99593.38;5078470;28;45330;-60
2022/04/24 07:31:21;;;;;;;;;16.75;16.25;;;;;21.07;37.50;99596.16;5078278;28;45383;-60
2022/04/24 07:33:47;;;;;;;;;17.75;17.25;;;;;21.07;37.38;99593.53;5077725;28;45554;-58
2022/04/24 07:36:12;;;;;;;;;14.50;14.50;;;;;21.09;37.44;99594.25;5077858;28;45434;-60
2022/04/24 07:38:37;;;;;;;;;17.75;15.50;;;;;21.09;37.64;99596.88;5077780;28;45429;-59
2022/04/24 07:41:03;;;;;;;;;16.25;16.00;;;;;21.09;37.38;99597.72;5078069;28;45557;-58
2022/04/24 07:43:29;;;;;;;;;14.50;14.50;;;;;21.11;37.22;99602.88;5077921;28;46169;-60
2022/04/24 07:45:54;;;;;;;;;18.25;16.25;;;;;21.10;37.43;99602.03;5078128;28;45343;-61
2022/04/24 07:48:20;;;;;;;;;15.50;14.25;;;;;21.10;37.51;99603.84;5077533;28;45418;-59
2022/04/24 07:50:48;;;;;;;;;19.25;18.50;;;;;21.13;37.37;99606.19;5077976;28;45243;-60
2022/04/24 07:53:14;;;;;;;;;20.25;17.75;;;;;21.12;37.34;99604.53;5077540;28;47026;-59
2022/04/24 07:55:44;;;;;;;;;17.00;17.00;;;;;21.12;37.30;99604.53;5077606;28;46223;-57
2022/04/24 07:58:10;;;;;;;;;19.00;18.00;;;;;21.13;37.08;99606.19;5077710;28;45430;-58
2022/04/24 08:00:36;;;;;;;;;19.00;18.00;;;;;21.13;36.96;99606.19;5077778;28;45524;-58
2022/04/24 08:03:13;;;;;;;;;17.00;15.00;;;;;21.13;37.37;99611.47;5077305;28;46175;-58
2022/04/24 08:05:43;;;;;;;;;16.25;15.25;;;;;21.14;37.45;99607.88;5077383;28;45173;-58
2022/04/24 08:08:20;;;;;;;;;17.75;16.75;;;;;21.14;37.28;99607.88;5077359;28;45390;-58
2022/04/24 08:10:50;;;;;;;;;19.00;19.00;;;;;21.14;37.19;99613.16;5077328;28;45197;-57
2022/04/24 08:13:17;;;;;;;;;26.75;25.25;;;;;21.13;37.03;99611.47;5077434;28;45385;-60
2022/04/24 08:15:43;;;;;;;;;27.50;25.00;;;;;21.11;36.77;99621.31;5077311;28;45338;-58
2022/04/24 08:18:12;;;;;;;;;30.00;25.75;;;;;21.08;36.62;99618.91;5076954;28;45359;-56
2022/04/24 08:20:39;;;;;;;;;32.00;29.50;;;;;21.03;36.62;99627.16;5077515;28;45532;-57
2022/04/24 08:23:05;;;;;;;;;32.50;29.00;;;;;20.98;36.90;99627.53;5077130;28;45239;-57
2022/04/24 08:25:34;;;;;;;;;31.75;30.25;;;;;20.91;36.79;99620.19;5077286;28;45929;-57
2022/04/24 08:28:02;;;;;;;;;26.50;24.75;;;;;20.88;37.07;99623.91;5077424;28;45381;-55
2022/04/24 08:30:28;;;;;;;;;33.00;29.25;;;;;20.87;36.81;99627.50;5077539;28;45523;-58
2022/04/24 08:32:54;;;;;;;;;31.50;29.50;;;;;20.81;37.20;99626.16;5076968;28;45304;-58
2022/04/24 08:35:20;;;;;;;;;32.25;28.00;;;;;20.77;36.64;99623.88;5076933;28;45244;-58
2022/04/24 08:37:47;;;;;;;;;33.25;30.75;;;;;20.72;37.16;99631.25;5077013;28;45445;-56
2022/04/24 08:40:15;;;;;;;;;37.50;30.50;;;;;20.68;36.87;99626.22;5077195;28;45489;-57
2022/04/24 08:42:41;;;;;;;;;32.00;30.50;;;;;20.65;37.18;99623.81;5076544;28;46360;-57
2022/04/24 08:45:10;;;;;;;;;29.00;25.50;;;;;20.63;36.59;99625.72;5058719;28;45320;-56
2022/04/24 08:47:36;;;;;;;;;37.75;32.00;;;;;20.64;36.79;99624.78;5076835;28;45334;-57
2022/04/24 08:50:02;;;;;;;;;29.00;28.75;;;;;20.64;36.70;99626.56;5077287;28;45596;-54
2022/04/24 08:52:29;;;;;;;;;29.75;28.00;;;;;20.63;36.99;99623.09;5076941;28;45993;-55
2022/04/24 08:54:57;;;;;;;;;32.25;28.75;;;;;20.66;37.28;99632.56;5076706;28;45554;-55
2022/04/24 08:57:26;;;;;;;;;35.50;31.50;;;;;20.66;36.99;99632.56;5058631;28;45414;-54
2022/04/24 08:59:52;;;;;;;;;30.25;27.75;;;;;20.68;37.11;99628.00;5076784;28;45481;-54
2022/04/24 09:02:18;;;;;;;;;39.75;31.25;;;;;20.68;37.04;99644.63;5075327;28;47094;-57
2022/04/24 09:04:43;;;;;;;;;38.00;31.33;;;;;20.66;36.65;99633.41;5076718;28;46106;-57
2022/04/24 09:07:10;;;;;;;;;33.25;30.00;;;;;20.70;36.70;99634.00;5076513;28;45316;-55
2022/04/24 09:09:44;;;;;;;;;33.50;30.75;;;;;20.69;37.11;99630.53;5076669;28;45513;-49
2022/04/24 09:12:10;;;;;;;;;27.50;25.75;;;;;20.68;36.69;99636.75;5075962;28;46522;-58
2022/04/24 09:14:36;;;;;;;;;32.25;30.00;;;;;20.66;36.59;99636.03;5076391;28;45311;-52
2022/04/24 09:17:20;;;;;;;;;33.50;26.00;;;;;20.71;36.80;99638.31;5076878;28;45849;-58
2022/04/24 09:19:46;;;;;;;;;29.75;29.75;;;;;20.69;36.89;99641.06;5076627;28;45292;-53
2022/04/24 09:22:12;;;;;;;;;35.50;30.75;;;;;20.63;36.78;99641.53;5075912;28;46095;-54
2022/04/24 09:24:52;;;;;;;;;30.50;24.25;;;;;20.65;36.99;99649.28;5076173;28;45848;-51
2022/04/24 09:27:36;;;;;;;;;33.50;27.75;;;;;20.62;36.59;99650.38;5074794;28;45472;-56
2022/04/24 09:30:14;;;;;;;;;33.25;29.50;;;;;20.64;36.52;99653.75;5075205;28;45706;-54
2022/04/24 09:32:51;;;;;;;;;34.50;29.75;;;;;20.64;36.96;99659.00;5076066;28;46301;-53
2022/04/24 09:35:26;;;;;;;;;40.00;32.25;;;;;20.62;36.45;99662.69;5076122;28;45965;-53
2022/04/24 09:37:52;;;;;;;;;32.75;30.00;;;;;20.61;36.51;99650.50;5076368;28;45298;-57
2022/04/24 09:40:17;;;;;;;;;31.50;29.75;;;;;20.60;37.09;99662.81;5076344;28;45325;-58
2022/04/24 09:42:55;;;;;;;;;33.00;30.75;;;;;20.60;36.55;99662.81;5079549;28;45306;-55
2022/04/24 09:45:24;;;;;;;;;36.75;30.00;;;;;20.59;36.59;99666.38;5079792;28;45347;-54
2022/04/24 09:47:58;;;;;;;;;30.50;25.25;;;;;20.60;36.71;99659.34;5079216;28;45511;-55
2022/04/24 09:50:29;;;;;;;;;28.00;23.25;;;;;20.60;36.95;99668.06;5079711;28;45341;-50
2022/04/24 09:52:55;;;;;;;;;30.25;28.00;;;;;20.62;36.92;99666.16;5079526;28;46264;-53
2022/04/24 09:55:22;;;;;;;;;34.00;30.00;;;;;20.61;36.52;99663.66;5079476;28;45839;-52
2022/04/24 09:57:48;;;;;;;;;30.00;29.50;;;;;20.61;36.68;99668.94;5079500;28;45426;-57
2022/04/24 10:00:15;;;;;;;;;28.25;26.75;;;;;20.61;36.29;99674.19;5079927;28;45551;-57
2022/04/24 10:02:41;;;;;;;;;31.25;27.00;;;;;20.60;36.54;99677.78;5079318;28;45374;-56
2022/04/24 10:05:08;;;;;;;;;34.75;30.75;;;;;20.61;36.13;99679.47;5079377;28;45307;-55
2022/04/24 10:07:35;;;;;;;;;27.00;23.75;;;;;20.61;36.38;99680.28;5079737;28;45335;-55
2022/04/24 10:10:00;;;;;;;;;24.50;24.50;;;;;20.63;36.31;99683.66;5079457;28;45323;-56
2022/04/24 10:12:26;;;;;;;;;23.00;20.75;;;;;20.64;36.31;99679.22;5078828;28;45978;-57
2022/04/24 10:15:00;;;;;;;;;28.00;24.50;;;;;20.68;36.44;99686.75;5079205;28;45363;-58
2022/04/24 10:17:40;;;;;;;;;29.00;24.75;;;;;20.70;36.44;99695.41;5079455;28;45402;-56
2022/04/24 10:20:24;;;;;;;;;23.75;21.75;;;;;20.70;36.13;99690.13;5079749;28;45370;-58
2022/04/24 10:22:54;;;;;;;;;30.75;26.50;;;;;20.73;36.22;99696.13;5079017;28;46268;-59
2022/04/24 10:25:32;;;;;;;;;28.50;24.00;;;;;20.73;36.03;99702.22;5079048;28;45287;-55
2022/04/24 10:28:17;;;;;;;;;26.00;23.50;;;;;20.73;36.02;99704.84;5078976;28;45355;-57
2022/04/24 10:30:46;;;;;;;;;25.75;24.75;;;;;20.75;36.48;99705.63;5079401;28;45355;-58
2022/04/24 10:33:15;;;;;;;;;29.25;24.50;;;;;20.76;36.24;99714.38;5078214;28;45840;-55
2022/04/24 10:35:52;;;;;;;;;32.50;26.50;;;;;20.77;36.42;99711.59;5078836;28;45272;-53
2022/04/24 10:38:20;;;;;;;;;28.00;22.50;;;;;20.78;36.46;99723.81;5078627;28;45395;-54
2022/04/24 10:41:03;;;;;;;;;28.50;25.25;;;;;20.79;36.16;99716.75;5060771;28;45321;-57
2022/04/24 10:43:48;;;;;;;;;27.00;22.50;;;;;20.79;36.51;99725.50;5078635;28;47025;-54
2022/04/24 10:46:24;;;;;;;;;26.75;24.75;;;;;20.81;36.28;99725.38;5078669;28;45866;-54
2022/04/24 10:48:50;;;;;;;;;32.00;30.75;;;;;20.79;36.20;99720.25;5078852;28;45331;-57
2022/04/24 10:51:32;;;;;;;;;36.50;34.25;;;;;20.82;36.32;99729.69;5078311;28;45449;-57
2022/04/24 10:54:00;;;;;;;;;51.25;41.75;;;;;20.85;36.79;99730.31;5060525;28;46175;-58
2022/04/24 10:56:27;;;;;;;;;58.00;46.50;;;;;20.88;36.36;99726.63;5078510;28;45685;-52
2022/04/24 10:58:53;;;;;;;;;60.50;46.25;;;;;20.88;36.72;99712.59;5078712;28;45201;-58
2022/04/24 11:01:18;;;;;;;;;63.50;49.50;;;;;20.92;36.80;99733.31;5078791;28;45341;-58
2022/04/24 11:03:46;;;;;;;;;62.00;47.50;;;;;20.93;36.25;99728.91;5078398;28;45269;-58
2022/04/24 11:06:23;;;;;;;;;51.50;41.50;;;;;20.95;36.94;99732.25;5078462;28;45397;-54
2022/04/24 11:08:49;;;;;;;;;50.00;40.00;;;;;20.93;36.17;99729.75;5078427;28;45535;-49
2022/04/24 11:11:16;;;;;;;;;53.25;43.25;;;;;20.95;36.71;99737.53;5078538;28;45272;-48
2022/04/24 11:13:42;;;;;;;;;51.50;40.25;;;;;20.98;36.56;99735.53;5078133;28;45291;-53
2022/04/24 11:16:07;;;;;;;;;52.25;41.50;;;;;21.00;36.66;99743.28;5078618;28;45359;-51
2022/04/24 11:18:33;;;;;;;;;42.75;36.50;;;;;21.01;36.72;99742.34;5078293;28;45354;-52
2022/04/24 11:21:01;;;;;;;;;35.50;31.25;;;;;21.03;36.52;99747.50;5078424;28;45268;-48
2022/04/24 11:23:29;;;;;;;;;38.50;33.50;;;;;21.00;36.75;99744.13;5077372;28;45413;-56